Time;durP1;ratioP1;P1;durP2;ratioP2;P2;SDS_P1;SDS_P2;PMS_P1;PMS_P2;Temp;Humidity;BMP_temperature;BMP_pressure;BME280_temperature;BME280_humidity;BME280_pressure;Samples;Min_cycle;Max_cycle;Signal;HPM_P1;HPM_P2
2022/09/24 00:01:23;;;;;;;;;;;;;;;10.42;58.12;100081.03;4279446;33;20003;-83
2022/09/24 00:03:51;;;;;;;;;;;;;;;10.84;56.62;100083.59;4269333;33;19981;-80
2022/09/24 00:06:18;;;;;;;;;;;;;;;10.86;56.55;100083.63;4279311;33;19989;-83
2022/09/24 00:08:45;;;;;;;;;;;;;;;10.86;56.99;100081.03;4266953;33;20007;-83
2022/09/24 00:11:12;;;;;;;;;;;;;;;10.90;56.75;100085.44;4261215;33;20340;-80
2022/09/24 00:13:39;;;;;;;;;;;;;;;11.12;55.71;100074.59;4254415;33;19996;-81
2022/09/24 00:16:10;;;;;;;;;;;;;;;10.89;56.21;100068.16;4262102;33;19977;-84
2022/09/24 00:18:37;;;;;;;;;;;;;;;10.81;56.51;100086.12;4254797;33;20467;-84
2022/09/24 00:21:30;;;;;;;;;;;;;;;10.89;56.38;100083.69;4255008;33;20023;-80
2022/09/24 00:23:58;;;;;;;;;;;;;;;10.86;56.31;100081.03;3820294;33;10011814;-82
2022/09/24 00:29:11;;;;;;;;;;;;;;;10.96;55.96;100080.34;4264038;33;19982;-86
2022/09/24 00:31:38;;;;;;;;;;;;;;;10.87;56.28;100075.00;4262198;33;20046;-87
2022/09/24 00:34:05;;;;;;;;;;;;;;;10.98;55.85;100088.19;4260813;33;20072;-82
2022/09/24 00:36:32;;;;;;;;;;;;;;;10.74;56.62;100091.16;4264824;33;19973;-83
2022/09/24 00:38:59;;;;;;;;;;;;;;;10.79;56.35;100079.19;4255914;33;19982;-84
2022/09/24 00:41:27;;;;;;;;;;;;;;;10.37;57.39;100088.72;4262600;33;19981;-83
2022/09/24 00:43:54;;;;;;;;;;;;;;;10.66;56.52;100076.34;4264708;33;19982;-87
2022/09/24 00:46:38;;;;;;;;;;;;;;;10.48;57.39;100075.97;4269289;33;19978;-83
2022/09/24 00:49:09;;;;;;;;;;;;;;;10.54;57.23;100076.09;4264437;33;20039;-86
2022/09/24 00:51:37;;;;;;;;;;;;;;;10.71;56.48;100074.72;4251780;33;19996;-87
2022/09/24 00:54:05;;;;;;;;;;;;;;;10.69;56.20;100071.25;4264353;33;19989;-84
2022/09/24 00:56:33;;;;;;;;;;;;;;;10.60;56.65;100071.06;4254548;33;20017;-83
2022/09/24 00:59:01;;;;;;;;;;;;;;;10.83;55.72;100062.84;4264032;33;19986;-82
2022/09/24 01:01:28;;;;;;;;;;;;;;;10.71;56.05;100064.34;4254217;33;20000;-82
2022/09/24 01:03:56;;;;;;;;;;;;;;;10.56;56.48;100053.72;4262841;33;20268;-83
2022/09/24 01:06:23;;;;;;;;;;;;;;;10.67;56.11;100057.37;4256189;33;20252;-81
2022/09/24 01:08:50;;;;;;;;;;;;;;;10.71;56.12;100061.75;4270625;33;20001;-83
2022/09/24 01:11:20;;;;;;;;;;;;;;;10.58;56.59;100062.38;4254306;33;19993;-83
2022/09/24 01:14:07;;;;;;;;;;;;;;;10.56;56.19;100056.31;4264499;33;19990;-84
2022/09/24 01:16:37;;;;;;;;;;;;;;;10.66;56.01;100059.97;3677225;33;10027908;-81
2022/09/24 01:19:30;;;;;;;;;;;;;;;10.50;56.75;100058.78;4273400;33;20004;-84
2022/09/24 01:22:02;;;;;;;;;;;;;;;10.55;56.11;100046.78;4272677;33;20003;-83
2022/09/24 01:24:47;;;;;;;;;;;;;;;10.42;56.77;100049.97;4267737;33;19985;-85
2022/09/24 01:27:15;;;;;;;;;;;;;;;10.58;56.24;100046.84;4260805;33;20037;-80
2022/09/24 01:29:42;;;;;;;;;;;;;;;10.51;56.39;100045.00;4264722;33;19990;-83
2022/09/24 01:32:27;;;;;;;;;;;;;;;10.48;56.34;100045.78;4236893;33;20004;-85
2022/09/24 01:35:01;;;;;;;;;;;;;;;10.23;57.03;100044.37;4254270;33;19999;-84
2022/09/24 01:37:28;;;;;;;;;;;;;;;10.42;56.54;100044.81;4255742;33;20049;-80
2022/09/24 01:39:55;;;;;;;;;;;;;;;10.33;56.97;100039.44;4264386;33;19973;-84
2022/09/24 01:42:22;;;;;;;;;;;;;;;10.17;57.33;100033.91;4264258;33;19997;-86
2022/09/24 01:44:49;;;;;;;;;;;;;;;10.24;56.95;100030.63;4253626;33;20522;-86
2022/09/24 01:47:17;;;;;;;;;;;;;;;10.31;56.70;100030.78;4263425;33;19996;-82
2022/09/24 01:49:45;;;;;;;;;;;;;;;10.24;56.97;100030.63;4254990;33;19984;-83
2022/09/24 01:52:12;;;;;;;;;;;;;;;10.46;55.63;100031.06;4253496;33;20352;-82
2022/09/24 01:54:41;;;;;;;;;;;;;;;10.29;56.62;100027.28;4263790;33;19989;-82
2022/09/24 01:57:08;;;;;;;;;;;;;;;10.51;55.98;100024.28;4256659;33;19981;-81
2022/09/24 01:59:36;;;;;;;;;;;;;;;10.39;56.03;100027.50;4264319;33;20025;-84
2022/09/24 02:02:04;;;;;;;;;;;;;;;10.35;56.35;100033.47;4272708;33;20312;-81
2022/09/24 02:04:32;;;;;;;;;;;;;;;10.30;56.70;100034.19;4264450;33;19985;-86
2022/09/24 02:07:00;;;;;;;;;;;;;;;10.49;55.94;100036.31;4264576;33;19998;-80
2022/09/24 02:09:28;;;;;;;;;;;;;;;10.50;55.82;100038.09;4253749;33;19978;-87
2022/09/24 02:11:55;;;;;;;;;;;;;;;10.11;57.03;100028.62;4271655;33;19993;-82
2022/09/24 02:14:22;;;;;;;;;;;;;;;10.20;56.75;100028.81;4264550;33;20008;-87
2022/09/24 02:16:50;;;;;;;;;;;;;;;10.06;56.88;100035.41;4252437;33;19993;-84
2022/09/24 02:19:21;;;;;;;;;;;;;;;10.25;56.57;100032.38;4263925;33;19977;-83
2022/09/24 02:21:48;;;;;;;;;;;;;;;10.12;56.60;100035.56;4254053;33;19982;-83
2022/09/24 02:24:21;;;;;;;;;;;;;;;10.16;56.28;100032.19;4250202;33;20333;-85
2022/09/24 02:26:49;;;;;;;;;;;;;;;9.99;56.72;100038.72;4228536;33;19982;-85
2022/09/24 02:29:17;;;;;;;;;;;;;;;10.22;56.20;100032.31;4234157;33;19983;-85
2022/09/24 02:31:45;;;;;;;;;;;;;;;10.44;55.46;100037.97;4238973;33;20408;-85
2022/09/24 02:34:32;;;;;;;;;;;;;;;10.23;55.98;100034.03;4233384;33;19990;-88
2022/09/24 02:37:04;;;;;;;;;;;;;;;10.36;55.42;100044.69;4225191;33;20043;-84
2022/09/24 02:39:32;;;;;;;;;;;;;;;9.96;56.42;100043.84;4225202;33;20038;-83
2022/09/24 02:41:59;;;;;;;;;;;;;;;10.06;56.22;100040.59;4224905;33;19990;-84
2022/09/24 02:44:27;;;;;;;;;;;;;;;9.88;56.71;100032.44;4225465;33;20774;-83
2022/09/24 02:46:54;;;;;;;;;;;;;;;10.07;56.43;100026.81;4238402;33;20004;-80
2022/09/24 02:49:21;;;;;;;;;;;;;;;10.04;57.24;100037.09;4239296;33;20013;-81
2022/09/24 02:51:48;;;;;;;;;;;;;;;10.24;56.30;100029.72;4245190;33;19986;-87
2022/09/24 02:54:15;;;;;;;;;;;;;;;10.23;56.27;100040.94;4242288;33;20296;-86
2022/09/24 02:56:41;;;;;;;;;;;;;;;10.52;55.12;100040.69;4238781;33;20005;-82
2022/09/24 02:59:08;;;;;;;;;;;;;;;10.06;56.39;100030.25;4238853;33;19990;-82
2022/09/24 03:01:35;;;;;;;;;;;;;;;9.98;56.52;100032.66;4246480;33;20009;-82
2022/09/24 03:04:02;;;;;;;;;;;;;;;9.90;56.52;100038.53;4255535;33;20049;-82
2022/09/24 03:06:29;;;;;;;;;;;;;;;9.73;57.79;100036.44;4253725;33;19990;-84
2022/09/24 03:08:56;;;;;;;;;;;;;;;9.90;57.16;100038.53;4254843;33;19981;-81
2022/09/24 03:11:23;;;;;;;;;;;;;;;9.90;56.60;100033.34;4255425;33;19986;-85
2022/09/24 03:13:50;;;;;;;;;;;;;;;9.83;57.08;100031.44;4250412;33;20026;-83
2022/09/24 03:16:17;;;;;;;;;;;;;;;9.84;57.46;100022.88;4242721;33;19982;-82
2022/09/24 03:18:45;;;;;;;;;;;;;;;10.04;56.60;100016.41;4239845;33;19981;-84
2022/09/24 03:21:12;;;;;;;;;;;;;;;9.88;57.41;100019.50;4242125;33;19990;-81
2022/09/24 03:23:40;;;;;;;;;;;;;;;9.85;57.03;100009.09;4248701;33;19990;-85
2022/09/24 03:26:06;;;;;;;;;;;;;;;9.91;57.20;100011.81;4255144;33;19994;-85
2022/09/24 03:28:33;;;;;;;;;;;;;;;10.17;56.17;100017.53;4253705;33;19985;-85
2022/09/24 03:31:00;;;;;;;;;;;;;;;10.24;55.69;100004.78;4250090;33;19974;-81
2022/09/24 03:33:48;;;;;;;;;;;;;;;9.83;57.16;99995.25;4243951;33;19982;-84
2022/09/24 03:36:16;;;;;;;;;;;;;;;10.05;56.40;100000.06;4248485;33;20000;-86
2022/09/24 03:38:44;;;;;;;;;;;;;;;10.23;55.83;100008.19;4239677;33;20022;-81
2022/09/24 03:41:11;;;;;;;;;;;;;;;9.69;57.42;100008.75;4240550;33;20469;-81
2022/09/24 03:43:38;;;;;;;;;;;;;;;9.83;56.96;100005.59;4245984;33;19986;-84
2022/09/24 03:46:05;;;;;;;;;;;;;;;9.99;56.37;100002.53;4240750;33;20026;-82
2022/09/24 03:48:33;;;;;;;;;;;;;;;9.76;56.61;100000.31;4240446;33;20388;-85
2022/09/24 03:51:07;;;;;;;;;;;;;;;9.69;57.15;99993.25;4249333;33;20048;-85
2022/09/24 03:53:34;;;;;;;;;;;;;;;9.74;57.12;99988.19;4248477;33;20006;-86
2022/09/24 03:56:01;;;;;;;;;;;;;;;9.69;57.63;99993.25;4252774;33;20813;-83
2022/09/24 03:58:30;;;;;;;;;;;;;;;9.68;57.30;99990.62;4246952;33;19997;-81
2022/09/24 04:00:57;;;;;;;;;;;;;;;9.70;57.31;99995.00;4240522;33;20000;-82
2022/09/24 04:03:24;;;;;;;;;;;;;;;9.81;56.50;99995.22;4240935;33;20708;-81
2022/09/24 04:05:51;;;;;;;;;;;;;;;10.05;56.15;99989.72;4246058;33;20048;-82
2022/09/24 04:08:20;;;;;;;;;;;;;;;9.92;56.40;99985.09;4261287;33;19981;-84
2022/09/24 04:10:49;;;;;;;;;;;;;;;9.75;56.21;99993.37;4254168;33;20088;-83
2022/09/24 04:13:16;;;;;;;;;;;;;;;9.55;57.51;99989.50;4254812;33;19990;-80
2022/09/24 04:15:43;;;;;;;;;;;;;;;9.99;56.02;99992.19;4260121;33;20029;-88
2022/09/24 04:18:10;;;;;;;;;;;;;;;9.65;56.74;99995.75;4266831;33;19977;-86
2022/09/24 04:20:37;;;;;;;;;;;;;;;9.83;56.38;99990.09;4254955;33;20002;-81
2022/09/24 04:23:04;;;;;;;;;;;;;;;9.56;56.63;99998.97;4262047;33;20366;-84
2022/09/24 04:25:31;;;;;;;;;;;;;;;9.82;56.24;99998.69;4265219;33;19988;-87
2022/09/24 04:28:01;;;;;;;;;;;;;;;10.00;55.74;99999.09;4255028;33;20000;-81
2022/09/24 04:30:28;;;;;;;;;;;;;;;9.65;56.87;99994.03;4254630;33;20005;-85
2022/09/24 04:32:58;;;;;;;;;;;;;;;9.58;57.04;99999.91;4255301;33;20000;-87
2022/09/24 04:35:25;;;;;;;;;;;;;;;9.25;58.35;100006.03;4256256;33;20034;-84
2022/09/24 04:37:52;;;;;;;;;;;;;;;9.73;55.69;100000.25;4271373;33;19969;-87
2022/09/24 04:40:19;;;;;;;;;;;;;;;9.49;57.14;99999.69;4254741;33;20316;-86
2022/09/24 04:42:46;;;;;;;;;;;;;;;9.58;56.79;99999.03;4253522;33;20356;-81
2022/09/24 04:45:15;;;;;;;;;;;;;;;9.53;57.50;99993.75;4255638;33;20331;-82
2022/09/24 04:47:42;;;;;;;;;;;;;;;9.82;56.23;100004.72;4260736;33;20000;-81
2022/09/24 04:50:10;;;;;;;;;;;;;;;9.77;56.70;100007.22;4255948;33;19997;-84
2022/09/24 04:52:37;;;;;;;;;;;;;;;9.74;56.42;100014.91;4260321;33;19974;-84
2022/09/24 04:55:04;;;;;;;;;;;;;;;9.85;56.19;100009.09;4260503;33;20512;-87
2022/09/24 04:57:35;;;;;;;;;;;;;;;9.46;57.58;100007.38;4255961;33;19998;-81
2022/09/24 05:00:06;;;;;;;;;;;;;;;9.60;57.98;100008.53;4267499;33;20356;-87
2022/09/24 05:02:33;;;;;;;;;;;;;;;9.36;58.85;100013.16;4258290;33;19989;-81
2022/09/24 05:04:59;;;;;;;;;;;;;;;9.62;58.32;100001.72;4254228;33;20017;-86
2022/09/24 05:07:26;;;;;;;;;;;;;;;9.55;59.22;100005.00;4257863;33;20388;-87
2022/09/24 05:09:53;;;;;;;;;;;;;;;9.82;58.21;100001.28;4256352;33;20044;-85
2022/09/24 05:12:20;;;;;;;;;;;;;;;9.70;59.45;99984.66;4274730;33;19980;-87
2022/09/24 05:14:47;;;;;;;;;;;;;;;9.89;59.02;99979.88;4269950;33;19984;-84
2022/09/24 05:17:14;;;;;;;;;;;;;;;9.89;57.92;99985.03;4291252;33;19977;-81
2022/09/24 05:19:41;;;;;;;;;;;;;;;10.08;58.04;99992.34;4282747;33;19985;-85
2022/09/24 05:22:07;;;;;;;;;;;;;;;10.00;59.31;99983.56;4281327;33;20003;-85
2022/09/24 05:24:34;;;;;;;;;;;;;;;10.01;59.82;99990.47;4274925;33;20008;-80
2022/09/24 05:27:10;;;;;;;;;;;;;;;10.36;58.28;99986.03;4268848;33;19981;-86
2022/09/24 05:29:38;;;;;;;;;;;;;;;10.15;59.19;99991.66;4272355;33;19993;-80
2022/09/24 05:32:09;;;;;;;;;;;;;;;10.12;59.53;99994.16;4289784;33;20004;-81
2022/09/24 05:34:36;;;;;;;;;;;;;;;10.33;59.00;99990.28;4292986;33;19993;-79
2022/09/24 05:37:03;;;;;;;;;;;;;;;10.18;59.39;99989.12;4293074;33;20450;-79
2022/09/24 05:39:30;;;;;;;;;;;;;;;10.48;58.79;99988.00;4273819;33;19989;-80
2022/09/24 05:42:00;;;;;;;;;;;;;;;10.78;57.36;99981.62;4280073;33;20441;-83
2022/09/24 05:44:28;;;;;;;;;;;;;;;10.86;57.49;99980.03;4276088;33;19993;-81
2022/09/24 05:46:55;;;;;;;;;;;;;;;10.88;57.01;99983.50;4279409;33;20020;-83
2022/09/24 05:49:21;;;;;;;;;;;;;;;10.92;57.68;99990.50;4272041;33;20009;-82
2022/09/24 05:51:49;;;;;;;;;;;;;;;11.10;56.93;99985.66;4275808;33;20094;-85
2022/09/24 05:54:16;;;;;;;;;;;;;;;11.30;56.47;99992.84;4276074;33;19992;-83
2022/09/24 05:56:42;;;;;;;;;;;;;;;11.24;56.68;99993.63;4288495;33;19984;-81
2022/09/24 05:59:10;;;;;;;;;;;;;;;11.34;56.81;99997.22;4285966;33;20151;-80
2022/09/24 06:01:36;;;;;;;;;;;;;;;11.18;57.87;99991.81;4266347;33;20453;-81
2022/09/24 06:04:03;;;;;;;;;;;;;;;11.49;56.63;100000.06;4268060;33;19989;-83
2022/09/24 06:06:35;;;;;;;;;;;;;;;11.46;57.27;99999.16;4278871;33;19989;-83
2022/09/24 06:09:02;;;;;;;;;;;;;;;11.35;58.40;100002.41;4290314;33;20064;-83
2022/09/24 06:11:35;;;;;;;;;;;;;;;11.29;58.79;99996.28;4281409;33;19999;-81
2022/09/24 06:14:10;;;;;;;;;;;;;;;11.37;58.92;100000.75;4279754;33;19989;-88
2022/09/24 06:16:44;;;;;;;;;;;;;;;11.80;57.32;99997.88;4279568;33;19981;-90
2022/09/24 06:19:24;;;;;;;;;;;;;;;11.50;58.23;100001.78;4288152;33;19996;-91
2022/09/24 06:21:53;;;;;;;;;;;;;;;11.81;58.03;100002.25;4279520;33;19997;-89
2022/09/24 06:24:26;;;;;;;;;;;;;;;11.90;58.39;100002.41;4284958;33;19981;-88
2022/09/24 06:26:54;;;;;;;;;;;;;;;12.11;57.69;99999.19;4281297;33;19989;-90
2022/09/24 06:29:32;;;;;;;;;;;;;;;12.34;57.73;100000.31;4287519;33;20032;-90
2022/09/24 06:32:02;;;;;;;;;;;;;;;12.57;57.26;100003.19;4289874;33;19997;-93
2022/09/24 06:34:38;;;;;;;;;;;;;;;12.55;57.12;100007.50;4269162;33;20013;-93
2022/09/24 06:37:06;;;;;;;;;;;;;;;12.78;57.17;100006.84;4280979;33;19989;-89
2022/09/24 06:39:33;;;;;;;;;;;;;;;12.81;56.94;100012.09;4280867;33;20029;-91
2022/09/24 06:42:01;;;;;;;;;;;;;;;13.00;56.21;100007.94;4270119;33;20037;-93
2022/09/24 06:44:33;;;;;;;;;;;;;;;13.16;56.05;100003.75;4275960;33;19981;-95
2022/09/24 06:47:04;;;;;;;;;;;;;;;13.34;55.69;100009.13;4285283;33;20353;-91
2022/09/24 06:49:34;;;;;;;;;;;;;;;13.51;55.53;99998.84;4291575;33;19989;-93
2022/09/24 06:52:03;;;;;;;;;;;;;;;13.51;55.82;100005.78;4286491;33;20336;-92
2022/09/24 06:54:34;;;;;;;;;;;;;;;13.71;54.76;100009.34;4279364;33;20003;-83
2022/09/24 06:57:03;;;;;;;;;;;;;;;13.78;54.93;100005.91;4290425;33;19989;-88
2022/09/24 06:59:29;;;;;;;;;;;;;;;14.02;55.21;100009.53;3690293;33;10024988;-82
2022/09/24 07:01:57;;;;;;;;;;;;;;;14.12;55.17;100006.09;4256582;33;20009;-87
2022/09/24 07:04:24;;;;;;;;;;;;;;;14.23;55.52;100004.44;4250323;33;20348;-84
2022/09/24 07:09:39;;;;;;;;;;;;;;;14.75;53.83;100017.63;4254275;33;20339;-84
2022/09/24 07:12:07;;;;;;;;;;;;;;;14.97;52.61;100020.28;4246726;33;20072;-87
2022/09/24 07:14:34;;;;;;;;;;;;;;;15.45;52.14;100018.53;4253919;33;20003;-82
2022/09/24 07:17:01;;;;;;;;;;;;;;;15.64;52.71;100017.63;4255056;33;20398;-80
2022/09/24 07:19:28;;;;;;;;;;;;;;;16.10;51.80;100014.06;4250978;33;19973;-87
2022/09/24 07:21:54;;;;;;;;;;;;;;;15.98;50.34;100014.97;4242992;33;20510;-94
2022/09/24 07:24:21;;;;;;;;;;;;;;;16.34;50.12;100018.34;4247334;33;19994;-88
2022/09/24 07:26:48;;;;;;;;;;;;;;;16.10;50.58;100020.16;4239444;33;20001;-79
2022/09/24 07:29:15;;;;;;;;;;;;;;;16.25;50.34;100024.44;4238606;33;20022;-92
2022/09/24 07:31:42;;;;;;;;;;;;;;;16.40;49.19;100018.28;4240283;33;19989;-88
2022/09/24 07:34:09;;;;;;;;;;;;;;;16.33;49.67;100019.19;4248545;33;19982;-88
2022/09/24 07:36:35;;;;;;;;;;;;;;;16.25;49.87;100025.31;4251042;33;19998;-83
2022/09/24 07:39:03;;;;;;;;;;;;;;;16.09;51.22;100028.88;4251288;33;20325;-84
2022/09/24 07:41:30;;;;;;;;;;;;;;;16.13;52.26;100030.59;4252993;33;19981;-85
2022/09/24 07:43:57;;;;;;;;;;;;;;;16.24;51.70;100030.53;4250459;33;20009;-85
2022/09/24 07:46:24;;;;;;;;;;;;;;;16.32;51.40;100027.91;4250334;33;20416;-87
2022/09/24 07:48:53;;;;;;;;;;;;;;;16.43;51.94;100033.94;4248855;33;19982;-88
2022/09/24 07:51:19;;;;;;;;;;;;;;;16.62;50.74;100035.56;4245065;33;20001;-87
2022/09/24 07:53:47;;;;;;;;;;;;;;;16.61;50.75;100036.47;4243032;33;20332;-83
2022/09/24 07:56:14;;;;;;;;;;;;;;;16.55;51.60;100039.09;4249351;33;19984;-85
2022/09/24 07:58:40;;;;;;;;;;;;;;;16.45;52.01;100037.41;4259190;33;19993;-86
2022/09/24 08:01:07;;;;;;;;;;;;;;;16.77;51.51;100033.81;4245387;33;19983;-86
2022/09/24 08:03:35;;;;;;;;;;;;;;;16.97;50.85;100031.91;4242634;33;19996;-83
2022/09/24 08:06:03;;;;;;;;;;;;;;;16.86;50.89;100028.53;4247921;33;19986;-88
2022/09/24 08:08:29;;;;;;;;;;;;;;;16.74;51.64;100030.28;4254683;33;20668;-89
2022/09/24 08:10:56;;;;;;;;;;;;;;;17.20;49.25;100024.78;4254789;33;19986;-91
2022/09/24 08:13:24;;;;;;;;;;;;;;;16.96;52.10;100030.19;4252098;33;19997;-85
2022/09/24 08:15:58;;;;;;;;;;;;;;;17.40;49.36;100026.38;4262572;33;20276;-91
2022/09/24 08:18:25;;;;;;;;;;;;;;;17.58;47.57;100020.97;4284187;33;19985;-85
2022/09/24 08:20:52;;;;;;;;;;;;;;;17.60;49.28;100019.19;4284203;33;20011;-89
2022/09/24 08:23:19;;;;;;;;;;;;;;;17.92;47.55;100022.38;4272419;33;19977;-88
2022/09/24 08:25:46;;;;;;;;;;;;;;;17.92;46.13;100023.25;4275300;33;19985;-85
2022/09/24 08:28:15;;;;;;;;;;;;;;;18.10;45.24;100019.56;4281667;33;19981;-83
2022/09/24 08:30:43;;;;;;;;;;;;;;;18.30;43.66;100017.56;4273361;33;20000;-90
2022/09/24 08:33:10;;;;;;;;;;;;;;;18.59;42.98;100004.06;4293613;33;19985;-86
2022/09/24 08:35:38;;;;;;;;;;;;;;;18.57;42.49;99994.50;4281118;33;20043;-86
2022/09/24 08:38:05;;;;;;;;;;;;;;;18.17;45.24;100000.25;4286109;33;19981;-84
2022/09/24 08:40:42;;;;;;;;;;;;;;;18.57;45.76;99995.38;4279347;33;19982;-89
2022/09/24 08:43:14;;;;;;;;;;;;;;;18.84;43.26;99995.88;4279309;33;19989;-83
2022/09/24 08:48:30;;;;;;;;;;;;;;;18.88;43.24;99994.94;4274903;33;20316;-83
2022/09/24 08:51:00;;;;;;;;;;;;;;;19.18;40.87;99990.97;4278078;33;19984;-89
2022/09/24 08:53:27;;;;;;;;;;;;;;;18.88;43.10;99994.94;4280842;33;19993;-85
2022/09/24 08:55:54;;;;;;;;;;;;;;;19.01;45.24;100001.72;4282911;33;19996;-84
2022/09/24 08:58:30;;;;;;;;;;;;;;;19.26;42.80;99990.81;4282713;33;20336;-85
2022/09/24 09:00:59;;;;;;;;;;;;;;;19.63;42.19;99998.06;4279220;33;20007;-80
2022/09/24 09:03:50;;;;;;;;;;;;;;;19.43;42.29;99999.28;4279430;33;19981;-88
2022/09/24 09:06:35;;;;;;;;;;;;;;;19.26;40.93;100001.31;4268276;33;20009;-88
2022/09/24 09:09:10;;;;;;;;;;;;;;;18.77;41.75;99995.09;4268916;33;19981;-92
2022/09/24 09:11:39;;;;;;;;;;;;;;;19.59;42.11;99988.50;4269090;33;20008;-81
2022/09/24 09:14:11;;;;;;;;;;;;;;;19.80;41.63;99977.63;4282743;33;19977;-87
2022/09/24 09:16:57;;;;;;;;;;;;;;;19.90;41.75;99979.16;4293348;33;19996;-88
2022/09/24 09:19:26;;;;;;;;;;;;;;;20.09;41.26;99976.16;4293561;33;19989;-87
2022/09/24 09:21:54;;;;;;;;;;;;;;;19.78;41.92;99974.16;4293751;33;20382;-86
2022/09/24 09:24:25;;;;;;;;;;;;;;;19.72;41.21;99971.66;4293156;33;20003;-90
2022/09/24 09:26:54;;;;;;;;;;;;;;;20.10;40.64;99980.53;4281788;33;19985;-85
2022/09/24 09:29:21;;;;;;;;;;;;;;;20.38;40.61;99965.03;4285213;33;19993;-86
2022/09/24 09:32:01;;;;;;;;;;;;;;;20.00;40.83;99971.09;4278823;33;19986;-81
2022/09/24 09:34:34;;;;;;;;;;;;;;;20.51;41.05;99970.87;4278871;33;20004;-86
2022/09/24 09:37:07;;;;;;;;;;;;;;;20.43;40.92;99958.78;4275259;33;20346;-88
2022/09/24 09:39:44;;;;;;;;;;;;;;;20.43;41.33;99958.78;4268542;33;19985;-91
2022/09/24 09:42:11;;;;;;;;;;;;;;;20.66;41.08;99960.03;4278436;33;20735;-82
2022/09/24 09:44:42;;;;;;;;;;;;;;;20.86;39.92;99957.78;4278649;33;19984;-85
2022/09/24 09:47:15;;;;;;;;;;;;;;;20.58;39.65;99956.72;4278637;33;20005;-83
2022/09/24 09:49:43;;;;;;;;;;;;;;;20.82;40.53;99956.16;4285889;33;20005;-84
2022/09/24 09:52:12;;;;;;;;;;;;;;;21.18;38.85;99958.75;4286772;33;20323;-86
2022/09/24 09:54:40;;;;;;;;;;;;;;;21.16;39.57;99957.09;4287620;33;20720;-82
2022/09/24 09:57:07;;;;;;;;;;;;;;;20.85;39.39;99956.06;4269743;33;20252;-83
2022/09/24 09:59:34;;;;;;;;;;;;;;;20.71;39.45;99958.19;4284207;33;19989;-86
2022/09/24 10:02:01;;;;;;;;;;;;;;;20.37;40.51;99963.31;4267863;33;20229;-83
2022/09/24 10:04:34;;;;;;;;;;;;;;;20.23;40.54;99955.72;4271622;33;20001;-88
2022/09/24 10:07:13;;;;;;;;;;;;;;;20.67;39.43;99951.25;4280770;33;19976;-85
2022/09/24 10:09:41;;;;;;;;;;;;;;;20.21;39.67;99947.00;4281290;33;19985;-89
2022/09/24 10:12:15;;;;;;;;;;;;;;;20.16;41.37;99954.09;4276455;33;20477;-90
2022/09/24 10:14:42;;;;;;;;;;;;;;;20.41;42.52;99944.78;4269417;33;20000;-83
2022/09/24 10:17:10;;;;;;;;;;;;;;;20.06;42.76;99932.41;4280385;33;20418;-86
2022/09/24 10:19:38;;;;;;;;;;;;;;;20.40;41.89;99942.22;4288463;33;20017;-91
2022/09/24 10:22:16;;;;;;;;;;;;;;;20.09;42.67;99936.75;4287650;33;19993;-88
2022/09/24 10:24:43;;;;;;;;;;;;;;;20.19;41.59;99936.50;4271273;33;20041;-82
2022/09/24 10:27:11;;;;;;;;;;;;;;;20.38;40.10;99929.06;4286136;33;20011;-81
2022/09/24 10:32:24;;;;;;;;;;;;;;;20.79;41.14;99929.06;4269464;33;19985;-83
2022/09/24 10:34:59;;;;;;;;;;;;;;;20.81;39.97;99928.12;4279743;33;20033;-81
2022/09/24 10:37:26;;;;;;;;;;;;;;;20.86;39.59;99918.31;4269772;33;20025;-82
2022/09/24 10:40:00;;;;;;;;;;;;;;;20.78;38.17;99912.41;4279943;33;20039;-84
2022/09/24 10:42:28;;;;;;;;;;;;;;;21.10;36.47;99916.00;4285383;33;20000;-85
2022/09/24 10:44:55;;;;;;;;;;;;;;;21.24;37.03;99903.31;4283702;33;20041;-84
2022/09/24 10:47:31;;;;;;;;;;;;;;;21.49;36.29;99907.97;4279923;33;20327;-80
2022/09/24 10:50:02;;;;;;;;;;;;;;;21.24;34.65;99910.34;4283391;33;19988;-84
2022/09/24 10:52:41;;;;;;;;;;;;;;;21.42;36.79;99920.44;4287377;33;20000;-88
2022/09/24 10:55:27;;;;;;;;;;;;;;;21.09;35.66;99916.87;4269753;33;19997;-82
2022/09/24 10:58:03;;;;;;;;;;;;;;;21.15;35.51;99916.72;4281116;33;19985;-87
2022/09/24 11:00:51;;;;;;;;;;;;;;;21.59;35.19;99917.34;4279397;33;19991;-83
2022/09/24 11:03:17;;;;;;;;;;;;;;;21.12;34.92;99922.06;4292652;33;20001;-85
2022/09/24 11:06:03;;;;;;;;;;;;;;;20.54;36.59;99910.34;4283331;33;19985;-89
2022/09/24 11:08:53;;;;;;;;;;;;;;;20.67;35.33;99919.69;4282427;33;20001;-86
2022/09/24 11:11:36;;;;;;;;;;;;;;;20.85;35.61;99903.44;4284031;33;20371;-82
2022/09/24 11:14:02;;;;;;;;;;;;;;;20.82;36.00;99897.41;4292563;33;19985;-87
2022/09/24 11:16:43;;;;;;;;;;;;;;;21.08;35.84;99904.63;4280250;33;20127;-80
2022/09/24 11:19:22;;;;;;;;;;;;;;;20.84;36.24;99901.72;4295511;33;19988;-92
2022/09/24 11:22:05;;;;;;;;;;;;;;;20.73;35.68;99898.50;4282551;33;20056;-88
2022/09/24 11:24:34;;;;;;;;;;;;;;;21.21;36.24;99895.50;3692434;33;10305021;-91
2022/09/24 11:27:13;;;;;;;;;;;;;;;21.46;34.65;99886.97;4288031;33;19981;-88
2022/09/24 11:29:43;;;;;;;;;;;;;;;21.52;34.44;99878.91;4290940;33;19985;-85
2022/09/24 11:32:10;;;;;;;;;;;;;;;21.34;34.81;99883.72;4279340;33;20362;-88
2022/09/24 11:34:57;;;;;;;;;;;;;;;21.52;36.26;99889.44;4269039;33;20003;-88
2022/09/24 11:37:38;;;;;;;;;;;;;;;21.34;35.29;99886.37;4269003;33;19977;-85
2022/09/24 11:40:11;;;;;;;;;;;;;;;21.96;35.72;99869.72;4279104;33;19981;-88
2022/09/24 11:42:52;;;;;;;;;;;;;;;21.54;34.09;99871.84;4281264;33;19988;-88
2022/09/24 11:45:26;;;;;;;;;;;;;;;21.66;34.17;99871.47;4285594;33;19977;-88
2022/09/24 11:48:02;;;;;;;;;;;;;;;21.58;34.51;99868.19;4271542;33;19984;-88
2022/09/24 11:50:41;;;;;;;;;;;;;;;21.73;33.59;99873.03;4276418;33;19973;-86
2022/09/24 11:53:30;;;;;;;;;;;;;;;21.96;34.75;99863.56;4271877;33;20312;-86
2022/09/24 11:55:57;;;;;;;;;;;;;;;22.02;34.27;99868.66;4285048;33;19988;-89
2022/09/24 11:58:29;;;;;;;;;;;;;;;22.22;34.53;99866.31;4293859;33;20104;-86
2022/09/24 12:00:58;;;;;;;;;;;;;;;22.23;33.71;99861.88;4286030;33;19989;-86
2022/09/24 12:03:34;;;;;;;;;;;;;;;22.22;35.21;99870.72;4289043;33;20397;-87
2022/09/24 12:06:12;;;;;;;;;;;;;;;22.32;34.61;99855.47;4283437;33;19999;-87
2022/09/24 12:09:00;;;;;;;;;;;;;;;22.11;34.41;99852.53;4268619;33;19965;-81
2022/09/24 12:11:35;;;;;;;;;;;;;;;22.00;34.34;99844.12;4293636;33;20351;-87
2022/09/24 12:14:04;;;;;;;;;;;;;;;21.53;34.85;99843.75;4289808;33;20000;-88
2022/09/24 12:16:32;;;;;;;;;;;;;;;21.62;34.42;99848.75;4287319;33;20044;-87
2022/09/24 12:19:07;;;;;;;;;;;;;;;21.26;35.45;99856.75;4284101;33;20231;-81
2022/09/24 12:21:41;;;;;;;;;;;;;;;21.35;34.32;99845.16;4288037;33;19993;-86
2022/09/24 12:24:10;;;;;;;;;;;;;;;21.01;35.29;99845.16;4297271;33;20501;-86
2022/09/24 12:26:37;;;;;;;;;;;;;;;21.25;35.80;99848.87;4300355;33;19999;-85
2022/09/24 12:35:06;;;;;;;;;;;;;;;20.96;36.85;99847.03;4287335;33;19981;-82
2022/09/24 12:37:34;;;;;;;;;;;;;;;21.12;37.00;99843.09;4288034;33;20003;-83
2022/09/24 12:40:21;;;;;;;;;;;;;;;20.90;37.50;99827.91;4289397;33;20028;-81
2022/09/24 12:42:49;;;;;;;;;;;;;;;21.29;37.05;99835.63;4277052;33;20328;-88
2022/09/24 12:45:16;;;;;;;;;;;;;;;20.99;35.30;99833.81;4300399;33;20028;-86
2022/09/24 12:47:51;;;;;;;;;;;;;;;20.86;36.10;99826.22;4296981;33;20032;-85
2022/09/24 12:50:38;;;;;;;;;;;;;;;21.11;36.50;99828.22;4289644;33;19997;-84
2022/09/24 12:53:23;;;;;;;;;;;;;;;20.83;37.41;99834.22;4285526;33;20036;-84
2022/09/24 12:55:50;;;;;;;;;;;;;;;20.84;36.93;99830.69;4276115;33;20025;-85
2022/09/24 12:58:36;;;;;;;;;;;;;;;20.44;37.27;99829.03;4292991;33;20287;-86
2022/09/24 13:01:04;;;;;;;;;;;;;;;20.66;37.76;99823.25;4282852;33;20328;-89
2022/09/24 13:03:32;;;;;;;;;;;;;;;21.14;37.59;99820.25;4279028;33;20004;-84
2022/09/24 13:05:59;;;;;;;;;;;;;;;21.10;36.33;99818.59;4274992;33;20029;-85
2022/09/24 13:08:34;;;;;;;;;;;;;;;21.15;38.00;99816.69;4268073;33;20091;-83
2022/09/24 13:11:04;;;;;;;;;;;;;;;21.07;36.72;99813.41;4268611;33;19993;-84
2022/09/24 13:13:35;;;;;;;;;;;;;;;21.08;37.88;99812.50;4284954;33;19984;-86
2022/09/24 13:16:02;;;;;;;;;;;;;;;21.03;37.26;99806.53;4280587;33;20324;-82